Time;durP1;ratioP1;P1;durP2;ratioP2;P2;SDS_P1;SDS_P2;PMS_P1;PMS_P2;Temp;Humidity;BMP_temperature;BMP_pressure;BME280_temperature;BME280_humidity;BME280_pressure;Samples;Min_cycle;Max_cycle;Signal;HPM_P1;HPM_P2
2020/12/09 00:00:39;;;;;;;16.70;12.17;;;;;;;5.66;100.00;100665.38;1845231;77;938732;-75
2020/12/09 00:03:09;;;;;;;18.47;12.17;;;;;;;5.72;100.00;100666.58;1852371;76;938863;-75
2020/12/09 00:05:38;;;;;;;16.87;12.00;;;;;;;5.66;100.00;100666.75;1818615;77;938988;-75
2020/12/09 00:08:10;;;;;;;17.63;12.17;;;;;;;5.69;100.00;100664.89;1875143;75;939237;-74
2020/12/09 00:10:40;;;;;;;14.30;11.00;;;;;;;5.75;100.00;100663.84;1844129;76;938793;-75
2020/12/09 00:13:10;;;;;;;15.40;10.73;;;;;;;5.72;100.00;100662.44;1854276;75;938914;-75
2020/12/09 00:15:40;;;;;;;14.57;8.90;;;;;;;5.81;100.00;100655.92;1866299;75;938773;-75
2020/12/09 00:18:10;;;;;;;17.47;8.63;;;;;;;5.99;100.00;100665.80;1854066;75;936680;-75
2020/12/09 00:20:40;;;;;;;13.63;8.77;;;;;;;6.00;100.00;100667.44;1845321;76;936747;-74
2020/12/09 00:23:10;;;;;;;13.50;8.10;;;;;;;6.09;100.00;100664.52;1853747;75;936567;-75
2020/12/09 00:25:39;;;;;;;15.77;8.87;;;;;;;6.17;100.00;100667.63;1845473;76;936820;-75
2020/12/09 00:28:10;;;;;;;16.60;8.00;;;;;;;6.12;100.00;100666.77;1853166;76;937025;-75
2020/12/09 00:30:39;;;;;;;13.53;7.73;;;;;;;6.26;100.00;100670.20;1866388;76;936760;-75
2020/12/09 00:33:11;;;;;;;16.00;8.40;;;;;;;6.26;100.00;100670.75;1832688;76;936666;-75
2020/12/09 00:35:41;;;;;;;15.10;8.63;;;;;;;6.24;100.00;100668.27;1865801;75;936719;-75
2020/12/09 00:38:11;;;;;;;12.23;7.78;;;;;;;6.29;100.00;100672.44;1832900;76;936848;-74
2020/12/09 00:40:43;;;;;;;12.98;8.25;;;;;;;6.31;100.00;100673.02;1866923;75;936717;-75
2020/12/09 00:43:13;;;;;;;15.40;8.53;;;;;;;6.31;100.00;100672.19;1833258;77;936829;-75
2020/12/09 00:45:42;;;;;;;13.43;7.20;;;;;;;6.30;100.00;100673.27;1866040;75;936639;-75
2020/12/09 00:48:12;;;;;;;13.27;7.97;;;;;;;6.30;100.00;100672.72;1853908;75;936744;-75
2020/12/09 00:50:42;;;;;;;15.77;9.00;;;;;;;6.35;100.00;100672.78;1865871;75;936625;-75
2020/12/09 00:53:12;;;;;;;16.20;8.58;;;;;;;6.34;100.00;100657.86;1853547;76;936607;-75
2020/12/09 00:55:42;;;;;;;12.40;7.83;;;;;;;6.42;100.00;100673.93;1866172;75;936746;-75
2020/12/09 00:58:11;;;;;;;14.57;8.13;;;;;;;6.42;100.00;100670.37;1833465;76;936643;-75
2020/12/09 01:00:41;;;;;;;13.77;8.20;;;;;;;6.42;100.00;100671.74;1866432;76;936587;-75
2020/12/09 01:03:11;;;;;;;15.93;8.10;;;;;;;6.45;100.00;100677.56;1853376;76;936802;-75
2020/12/09 01:05:41;;;;;;;16.70;8.63;;;;;;;6.39;100.00;100668.41;1887826;75;936573;-75
2020/12/09 01:08:11;;;;;;;16.07;8.07;;;;;;;6.42;100.00;100674.50;1875026;75;936675;-75
2020/12/09 01:10:40;;;;;;;11.57;7.53;;;;;;;6.45;100.00;100669.29;1888043;75;936612;-75
2020/12/09 01:13:11;;;;;;;14.37;8.33;;;;;;;6.40;100.00;100664.55;1833620;76;936683;-75
2020/12/09 01:15:43;;;;;;;11.57;6.87;;;;;;;6.41;100.00;100659.88;1865954;75;936614;-75
2020/12/09 01:18:13;;;;;;;16.50;7.53;;;;;;;6.42;100.00;100664.84;1853895;75;936781;-75
2020/12/09 01:20:43;;;;;;;13.50;7.13;;;;;;;6.39;100.00;100662.88;1865979;75;936854;-75
2020/12/09 01:23:14;;;;;;;10.85;7.25;;;;;;;6.38;100.00;100667.27;1853966;76;936660;-75
2020/12/09 01:25:44;;;;;;;12.70;7.43;;;;;;;6.34;100.00;100668.34;1845533;77;936826;-75
2020/12/09 01:28:14;;;;;;;16.95;7.10;;;;;;;6.37;100.00;100671.95;1853666;75;936651;-75
2020/12/09 01:30:44;;;;;;;12.40;7.40;;;;;;;6.33;100.00;100672.77;1866382;75;936901;-75
2020/12/09 01:33:13;;;;;;;14.05;7.25;;;;;;;6.34;100.00;100675.24;1833405;76;936709;-75
2020/12/09 01:35:43;;;;;;;10.70;6.47;;;;;;;6.33;100.00;100678.28;1865726;76;936810;-75
2020/12/09 01:38:13;;;;;;;15.23;7.15;;;;;;;6.34;100.00;100678.00;1853303;76;936793;-75
2020/12/09 01:40:43;;;;;;;14.07;6.87;;;;;;;6.39;100.00;100676.67;1866436;75;936909;-75
2020/12/09 01:43:13;;;;;;;13.20;6.33;;;;;;;6.30;100.00;100666.38;1853983;76;936688;-75
2020/12/09 01:45:43;;;;;;;13.90;7.80;;;;;;;6.37;100.00;100672.53;1865680;75;936612;-75
2020/12/09 01:48:13;;;;;;;9.75;6.42;;;;;;;6.32;100.00;100674.69;1854141;75;936851;-75
2020/12/09 01:50:42;;;;;;;12.27;6.67;;;;;;;6.32;100.00;100679.38;1845701;76;934707;-75
2020/12/09 01:53:12;;;;;;;15.50;6.47;;;;;;;6.32;100.00;100679.38;1853829;75;936834;-75
2020/12/09 01:55:42;;;;;;;15.87;6.53;;;;;;;6.33;100.00;100681.84;1845608;76;937008;-75
2020/12/09 01:58:12;;;;;;;11.30;6.80;;;;;;;6.32;100.00;100677.45;1853856;76;936767;-75
2020/12/09 02:00:42;;;;;;;13.50;6.23;;;;;;;6.30;100.00;100682.38;1845640;76;936740;-75
2020/12/09 02:03:12;;;;;;;11.10;5.93;;;;;;;6.36;100.00;100686.03;1831258;76;936712;-75
2020/12/09 02:05:43;;;;;;;10.47;6.80;;;;;;;6.37;100.00;100692.64;1866450;75;936734;-75
2020/12/09 02:08:14;;;;;;;13.45;6.20;;;;;;;6.35;100.00;100692.63;1833728;76;936910;-75
2020/12/09 02:10:44;;;;;;;12.00;6.03;;;;;;;6.36;100.00;100698.44;1866155;75;936748;-75
2020/12/09 02:13:13;;;;;;;11.38;6.67;;;;;;;6.33;100.00;100700.35;1853545;75;936499;-75
2020/12/09 02:15:44;;;;;;;14.43;5.57;;;;;;;6.37;100.00;100698.16;1865999;76;936772;-75
2020/12/09 02:18:13;;;;;;;10.30;5.47;;;;;;;6.42;100.00;100693.81;1833348;77;937235;-75
2020/12/09 02:20:43;;;;;;;12.17;5.30;;;;;;;6.43;100.00;100700.97;1866122;75;936766;-75
2020/12/09 02:23:13;;;;;;;10.63;4.95;;;;;;;6.45;100.00;100698.80;1853640;76;936624;-75
2020/12/09 02:25:45;;;;;;;13.00;5.70;;;;;;;6.48;100.00;100696.89;1845605;76;936676;-75
2020/12/09 02:28:15;;;;;;;15.13;5.40;;;;;;;6.47;100.00;100702.95;1853987;75;936685;-75
2020/12/09 02:30:45;;;;;;;13.43;5.55;;;;;;;6.47;100.00;100691.08;1845805;76;936691;-75
2020/12/09 02:33:15;;;;;;;13.03;4.67;;;;;;;6.48;100.00;100692.75;1853964;75;936735;-75
2020/12/09 02:35:45;;;;;;;11.57;4.60;;;;;;;6.47;100.00;100686.94;1845570;75;936801;-75
2020/12/09 02:38:15;;;;;;;10.57;4.27;;;;;;;6.48;100.00;100687.23;1853982;76;936606;-75
2020/12/09 02:40:45;;;;;;;12.43;5.20;;;;;;;6.47;100.00;100689.16;1865965;75;936670;-75
2020/12/09 02:43:14;;;;;;;13.13;4.83;;;;;;;6.44;100.00;100692.98;1853151;75;936835;-75
2020/12/09 02:45:44;;;;;;;14.60;5.20;;;;;;;6.39;100.00;100688.25;1866277;76;936638;-75
2020/12/09 02:48:17;;;;;;;9.73;4.20;;;;;;;6.40;100.00;100683.87;1853534;75;936790;-75
2020/12/09 02:50:47;;;;;;;15.37;4.33;;;;;;;6.39;100.00;100690.47;1866308;76;934977;-75
2020/12/09 02:53:17;;;;;;;13.83;4.37;;;;;;;6.42;100.00;100692.44;1853850;76;942439;-75
2020/12/09 02:55:46;;;;;;;13.27;4.27;;;;;;;6.44;100.00;100691.61;1866314;75;936615;-75
2020/12/09 02:58:16;;;;;;;11.23;4.20;;;;;;;6.45;100.00;100691.36;1833558;76;936605;-75
2020/12/09 03:00:47;;;;;;;13.90;4.27;;;;;;;6.47;100.00;100699.35;1866127;76;936752;-75
2020/12/09 03:03:16;;;;;;;14.10;4.60;;;;;;;6.48;100.00;100691.37;1833722;76;936778;-75
2020/12/09 03:05:46;;;;;;;8.60;3.47;;;;;;;6.45;100.00;100689.14;1866309;75;936612;-75
2020/12/09 03:08:16;;;;;;;13.97;4.07;;;;;;;6.50;100.00;100693.33;1853761;75;934659;-75
2020/12/09 03:10:46;;;;;;;9.40;3.73;;;;;;;6.49;100.00;100691.66;1865702;76;936633;-75
2020/12/09 03:13:16;;;;;;;9.73;3.47;;;;;;;6.51;100.00;100693.59;1833429;77;934543;-75
2020/12/09 03:15:45;;;;;;;10.33;3.17;;;;;;;6.50;100.00;100696.93;1866242;75;934767;-75
2020/12/09 03:18:15;;;;;;;9.18;3.40;;;;;;;6.55;100.00;100698.88;1833347;77;937086;-75
2020/12/09 03:20:46;;;;;;;5.93;3.37;;;;;;;6.58;100.00;100699.75;1865931;75;934591;-75
2020/12/09 03:23:16;;;;;;;9.55;2.80;;;;;;;6.54;100.00;100699.99;1833378;76;934539;-75
2020/12/09 03:25:45;;;;;;;8.77;3.27;;;;;;;6.55;100.00;100701.63;1866091;76;934504;-76
2020/12/09 03:28:15;;;;;;;9.73;3.08;;;;;;;6.56;100.00;100708.82;1853977;75;934620;-75
2020/12/09 03:30:45;;;;;;;15.63;3.30;;;;;;;6.50;100.00;100700.23;1845628;76;934538;-76
2020/12/09 03:33:15;;;;;;;11.18;3.72;;;;;;;6.54;100.00;100695.31;1853644;75;936926;-75
2020/12/09 03:35:44;;;;;;;8.17;3.10;;;;;;;6.53;100.00;100699.70;1845646;75;936763;-76
2020/12/09 03:38:14;;;;;;;8.18;3.10;;;;;;;6.54;100.00;100699.45;1853891;75;934780;-75
2020/12/09 03:40:44;;;;;;;9.23;3.20;;;;;;;6.57;100.00;100701.67;1846063;76;934807;-75
2020/12/09 03:43:14;;;;;;;9.67;2.63;;;;;;;6.58;100.00;100695.06;1833007;77;934594;-75
2020/12/09 03:45:44;;;;;;;9.03;3.57;;;;;;;6.59;100.00;100705.56;1865916;75;934539;-75
2020/12/09 03:48:14;;;;;;;11.73;3.17;;;;;;;6.61;100.00;100704.19;1833250;76;934516;-75
2020/12/09 03:50:44;;;;;;;11.43;2.87;;;;;;;6.63;100.00;100707.50;1866156;75;936636;-75
2020/12/09 03:53:13;;;;;;;10.97;3.27;;;;;;;6.62;100.00;100706.41;1833513;76;936790;-75
2020/12/09 03:55:44;;;;;;;10.93;2.60;;;;;;;6.62;100.00;100706.41;1866164;76;936774;-75
2020/12/09 03:58:14;;;;;;;15.80;3.12;;;;;;;6.62;100.00;100704.48;1833404;76;936688;-75
2020/12/09 04:00:43;;;;;;;11.87;2.90;;;;;;;6.62;100.00;100710.55;1866031;75;936642;-74
2020/12/09 04:03:13;;;;;;;18.73;3.30;;;;;;;6.62;100.00;100710.00;1854224;75;936697;-75
2020/12/09 04:05:43;;;;;;;10.63;3.03;;;;;;;6.63;100.00;100710.84;1866222;76;936791;-75
2020/12/09 04:08:13;;;;;;;12.73;3.02;;;;;;;6.63;100.00;100714.41;1833008;76;936674;-75
2020/12/09 04:10:43;;;;;;;10.33;2.90;;;;;;;6.64;100.00;100706.41;1866215;75;936606;-75
2020/12/09 04:13:13;;;;;;;13.20;3.22;;;;;;;6.65;100.00;100714.98;1833287;77;936663;-75
2020/12/09 04:15:42;;;;;;;10.67;2.87;;;;;;;6.61;100.00;100712.47;1866060;76;936697;-75
2020/12/09 04:18:12;;;;;;;6.20;2.33;;;;;;;6.63;100.00;100713.02;1833121;76;936689;-75
2020/12/09 04:20:42;;;;;;;13.73;2.60;;;;;;;6.61;100.00;100714.39;1887780;75;934496;-75
2020/12/09 04:23:12;;;;;;;9.60;2.90;;;;;;;6.62;100.00;100710.55;1875416;75;936663;-75
2020/12/09 04:25:42;;;;;;;11.87;3.03;;;;;;;6.62;100.00;100713.30;1887681;75;935058;-75
2020/12/09 04:28:12;;;;;;;12.30;2.80;;;;;;;6.64;100.00;100719.38;1874979;75;936630;-75
2020/12/09 04:30:41;;;;;;;7.83;2.97;;;;;;;6.59;100.00;100711.08;1845523;76;936861;-75
2020/12/09 04:33:11;;;;;;;12.90;3.22;;;;;;;6.58;100.00;100718.52;1854044;75;934546;-75
2020/12/09 04:35:42;;;;;;;11.60;3.00;;;;;;;6.57;100.00;100715.47;1865600;76;936673;-75
2020/12/09 04:38:13;;;;;;;10.27;2.53;;;;;;;6.61;100.00;100706.95;1853965;76;936671;-75
2020/12/09 04:40:44;;;;;;;11.97;3.23;;;;;;;6.62;100.00;100718.28;1845587;76;936666;-75
2020/12/09 04:43:13;;;;;;;11.12;2.77;;;;;;;6.58;100.00;100706.65;1853985;75;936685;-75
2020/12/09 04:45:43;;;;;;;11.93;3.20;;;;;;;6.63;100.00;100703.94;1865868;75;936914;-75
2020/12/09 04:48:15;;;;;;;12.53;3.23;;;;;;;6.64;100.00;100704.20;1833448;76;936590;-75
2020/12/09 04:51:00;;;;;;;8.83;2.60;;;;;;;6.63;100.00;100713.59;1865576;75;936816;-75
2020/12/09 04:53:32;;;;;;;7.83;2.60;;;;;;;6.63;100.00;100711.64;1854024;75;935161;-75
2020/12/09 04:56:02;;;;;;;13.07;2.87;;;;;;;6.62;100.00;100700.89;1845641;76;932585;-75
2020/12/09 04:58:41;;;;;;;12.27;2.93;;;;;;;6.61;100.00;100703.36;1866056;76;936705;-75
2020/12/09 05:01:13;;;;;;;10.17;2.70;;;;;;;6.64;100.00;100706.95;1821354;76;936576;-76
2020/12/09 05:03:45;;;;;;;14.17;2.33;;;;;;;6.63;100.00;100703.36;1866340;75;936752;-75
2020/12/09 05:06:17;;;;;;;12.15;3.17;;;;;;;6.60;100.00;100703.90;1833381;76;936820;-75
2020/12/09 05:08:54;;;;;;;7.00;2.20;;;;;;;6.61;100.00;100706.95;1865779;76;936692;-76
2020/12/09 05:11:25;;;;;;;9.98;2.90;;;;;;;6.62;100.00;100698.97;1832809;76;934627;-76
2020/12/09 05:13:58;;;;;;;8.50;2.57;;;;;;;6.63;100.00;100701.98;1866460;76;932752;-76
2020/12/09 05:16:28;;;;;;;9.73;2.17;;;;;;;6.66;100.00;100702.86;1854082;75;934489;-75
2020/12/09 05:19:00;;;;;;;10.50;2.80;;;;;;;6.68;100.00;100703.41;1866127;75;932658;-75
2020/12/09 05:21:32;;;;;;;10.47;2.47;;;;;;;6.66;100.00;100702.86;1833413;76;936684;-75
2020/12/09 05:24:03;;;;;;;7.58;2.00;;;;;;;6.66;100.00;100710.30;1865889;75;934538;-75
2020/12/09 05:26:35;;;;;;;9.55;2.25;;;;;;;6.65;100.00;100711.39;1845477;76;934516;-75
2020/12/09 05:29:10;;;;;;;11.87;2.50;;;;;;;6.71;100.00;100715.88;1866278;75;932768;-75
2020/12/09 05:31:42;;;;;;;9.73;2.40;;;;;;;6.69;100.00;100715.29;1866217;76;936614;-75
2020/12/09 05:34:30;;;;;;;7.33;2.62;;;;;;;6.67;100.00;100716.11;1833129;77;933359;-74
2020/12/09 05:37:03;;;;;;;11.33;2.63;;;;;;;6.67;100.00;100718.33;1866100;76;932924;-75
2020/12/09 05:39:33;;;;;;;8.70;2.67;;;;;;;6.70;100.00;100719.72;1866228;76;936798;-75
2020/12/09 05:42:14;;;;;;;7.20;2.30;;;;;;;6.76;100.00;100729.15;1845301;76;932639;-76
2020/12/09 05:44:46;;;;;;;4.77;2.13;;;;;;;6.72;100.00;100732.70;1866385;75;934539;-76
2020/12/09 05:47:16;;;;;;;10.00;2.35;;;;;;;6.73;100.00;100730.23;1833561;76;934642;-75
2020/12/09 05:49:47;;;;;;;11.23;2.23;;;;;;;6.72;100.00;100734.08;1865987;76;936566;-75
2020/12/09 05:52:19;;;;;;;14.10;3.63;;;;;;;6.72;100.00;100731.31;1854495;75;936814;-75
2020/12/09 05:54:50;;;;;;;8.63;2.10;;;;;;;6.71;100.00;100737.95;1845516;76;936559;-75
2020/12/09 05:57:22;;;;;;;10.82;2.75;;;;;;;6.74;100.00;100734.11;1853977;75;934497;-75
2020/12/09 05:59:53;;;;;;;13.73;3.23;;;;;;;6.76;100.00;100739.38;1866116;75;934669;-75
2020/12/09 06:02:24;;;;;;;8.15;2.17;;;;;;;6.73;100.00;100737.12;1853367;75;936810;-74
2020/12/09 06:04:56;;;;;;;7.47;2.40;;;;;;;6.67;100.00;100739.58;1845584;77;932680;-74
2020/12/09 06:07:28;;;;;;;11.77;2.47;;;;;;;6.73;100.00;100739.89;1853704;75;934832;-74
2020/12/09 06:10:10;;;;;;;5.97;2.07;;;;;;;6.70;100.00;100741.80;1845618;76;934774;-75
2020/12/09 06:12:58;;;;;;;9.53;2.20;;;;;;;6.67;100.00;100747.31;1865762;76;934699;-75
2020/12/09 06:15:29;;;;;;;9.40;2.72;;;;;;;6.68;100.00;100746.19;1853557;76;934655;-75
2020/12/09 06:18:08;;;;;;;10.53;2.53;;;;;;;6.70;100.00;100753.68;1865869;75;932631;-75
2020/12/09 06:20:39;;;;;;;9.03;2.17;;;;;;;6.67;100.00;100751.45;1843721;76;936560;-75
2020/12/09 06:23:13;;;;;;;9.77;2.47;;;;;;;6.71;100.00;100750.38;1853909;75;934433;-74
2020/12/09 06:25:44;;;;;;;10.40;2.13;;;;;;;6.73;100.00;100754.52;1845552;77;934502;-75
2020/12/09 06:28:16;;;;;;;7.50;1.97;;;;;;;6.71;100.00;100755.89;1853862;75;936605;-75
2020/12/09 06:30:47;;;;;;;13.73;2.60;;;;;;;6.74;100.00;100758.96;1865857;75;934504;-75
2020/12/09 06:33:30;;;;;;;7.40;2.02;;;;;;;6.74;100.00;100756.74;1833484;76;936635;-74
2020/12/09 06:36:21;;;;;;;7.70;2.60;;;;;;;6.77;100.00;100764.48;1866345;75;932830;-74
2020/12/09 06:39:14;;;;;;;10.23;2.20;;;;;;;6.76;100.00;100766.98;1865750;75;934934;-74
2020/12/09 06:42:10;;;;;;;11.37;2.40;;;;;;;6.72;100.00;100761.13;1865564;75;936710;-74
2020/12/09 06:44:50;;;;;;;9.87;2.07;;;;;;;6.71;100.00;100761.41;1866235;75;936624;-74
2020/12/09 06:47:20;;;;;;;9.03;2.30;;;;;;;6.70;100.00;100763.88;1854040;75;934695;-74
2020/12/09 06:49:49;;;;;;;9.67;2.00;;;;;;;6.70;100.00;100763.34;1845593;76;934581;-75
2020/12/09 06:52:38;;;;;;;11.70;2.22;;;;;;;6.76;100.00;100771.12;1853829;75;934559;-74
2020/12/09 06:55:08;;;;;;;10.90;2.40;;;;;;;6.78;100.00;100773.06;1833270;76;936823;-74
2020/12/09 06:57:40;;;;;;;10.10;2.60;;;;;;;6.76;100.00;100774.70;1865736;75;936737;-75
2020/12/09 07:00:35;;;;;;;8.20;2.23;;;;;;;6.78;100.00;100777.20;1833386;76;936598;-74
2020/12/09 07:03:19;;;;;;;9.03;2.60;;;;;;;6.77;100.00;100775.53;1866174;76;932618;-73
2020/12/09 07:05:49;;;;;;;6.80;2.20;;;;;;;6.81;100.00;100774.75;1865881;75;934596;-73
2020/12/09 07:08:19;;;;;;;7.00;2.27;;;;;;;6.79;100.00;100779.72;1831804;76;934566;-73
2020/12/09 07:10:49;;;;;;;9.53;3.20;;;;;;;6.77;100.00;100783.27;1865982;76;934753;-75
2020/12/09 07:13:21;;;;;;;9.37;2.83;;;;;;;6.78;100.00;100788.25;1833205;76;934637;-74
2020/12/09 07:15:53;;;;;;;10.47;2.93;;;;;;;6.81;100.00;100795.45;1866249;75;934488;-74
2020/12/09 07:18:23;;;;;;;10.10;2.50;;;;;;;6.80;100.00;100798.50;1853749;75;936619;-74
2020/12/09 07:20:54;;;;;;;10.33;2.60;;;;;;;6.76;100.00;100800.92;1865443;75;934761;-74
2020/12/09 07:23:23;;;;;;;5.90;2.23;;;;;;;6.74;100.00;100798.98;1854189;75;936671;-74
2020/12/09 07:25:58;;;;;;;7.80;2.60;;;;;;;6.75;100.00;100794.30;1866210;75;932578;-74
2020/12/09 07:28:32;;;;;;;7.95;2.95;;;;;;;6.76;100.00;100800.92;1833183;77;934537;-75
2020/12/09 07:31:05;;;;;;;8.77;2.77;;;;;;;6.77;100.00;100799.00;1866167;75;932723;-74
2020/12/09 07:33:36;;;;;;;12.83;3.03;;;;;;;6.78;100.00;100800.13;1865586;76;934603;-74
2020/12/09 07:36:10;;;;;;;7.60;2.57;;;;;;;6.77;100.00;100797.07;1837662;75;936847;-74
2020/12/09 07:38:44;;;;;;;8.10;2.53;;;;;;;6.77;100.00;100801.21;1814776;78;934779;-74
2020/12/09 07:41:14;;;;;;;12.80;2.72;;;;;;;6.78;100.00;100801.50;1853986;75;934462;-74
2020/12/09 07:43:47;;;;;;;9.27;3.30;;;;;;;6.78;100.00;100800.67;1845455;77;936720;-76
2020/12/09 07:46:18;;;;;;;15.43;3.58;;;;;;;6.74;100.00;100800.91;1853764;75;938389;-74
2020/12/09 07:48:48;;;;;;;9.13;2.53;;;;;;;6.74;100.00;100812.78;1866233;75;936750;-73
2020/12/09 07:51:18;;;;;;;13.30;3.10;;;;;;;6.74;100.00;100808.64;1853689;75;934637;-75
2020/12/09 07:53:50;;;;;;;7.93;2.47;;;;;;;6.73;100.00;100813.88;1866180;75;936669;-74
2020/12/09 07:56:19;;;;;;;10.40;2.58;;;;;;;6.71;100.00;100809.17;1853737;76;934687;-73
2020/12/09 07:58:50;;;;;;;13.60;3.00;;;;;;;6.71;100.00;100820.22;1866194;75;936920;-74
2020/12/09 08:01:28;;;;;;;10.50;2.17;;;;;;;6.72;100.00;100808.05;1833460;76;936664;-73
2020/12/09 08:03:58;;;;;;;8.20;2.03;;;;;;;6.73;100.00;100813.88;1866038;75;934756;-77
2020/12/09 08:06:28;;;;;;;11.33;2.70;;;;;;;6.76;100.00;100818.86;1853641;75;934524;-75
2020/12/09 08:08:58;;;;;;;8.63;2.33;;;;;;;6.78;100.00;100819.45;1845314;76;934945;-74
2020/12/09 08:11:38;;;;;;;6.23;2.20;;;;;;;6.74;100.00;100816.92;1853524;76;934638;-73
2020/12/09 08:14:07;;;;;;;10.60;2.60;;;;;;;6.78;100.00;100814.47;1833417;76;934832;-74
2020/12/09 08:16:40;;;;;;;10.90;2.60;;;;;;;6.73;100.00;100816.63;1865944;75;936611;-75
2020/12/09 08:19:11;;;;;;;10.57;3.13;;;;;;;6.74;100.00;100813.33;1853213;75;936927;-75
2020/12/09 08:21:41;;;;;;;8.70;2.70;;;;;;;6.71;100.00;100813.86;1865357;75;937077;-76
2020/12/09 08:24:14;;;;;;;9.53;2.77;;;;;;;6.73;100.00;100815.80;1833408;76;934900;-76
2020/12/09 08:26:45;;;;;;;10.20;2.90;;;;;;;6.77;100.00;100818.32;1866278;75;934537;-73
2020/12/09 08:29:18;;;;;;;12.40;2.58;;;;;;;6.79;100.00;100822.50;1833623;76;936587;-76
2020/12/09 08:31:51;;;;;;;10.23;2.70;;;;;;;6.79;100.00;100823.05;1865497;76;936747;-78
2020/12/09 08:34:21;;;;;;;6.80;2.10;;;;;;;6.82;100.00;100828.03;1853259;76;936644;-74
2020/12/09 08:36:50;;;;;;;9.17;2.57;;;;;;;6.82;100.00;100822.52;1866243;75;934757;-77
2020/12/09 08:39:20;;;;;;;7.83;2.40;;;;;;;6.81;100.00;100831.34;1853496;75;934648;-75
2020/12/09 08:41:50;;;;;;;9.33;2.30;;;;;;;6.86;100.00;100834.16;1844281;77;934656;-75
2020/12/09 08:44:20;;;;;;;8.70;3.10;;;;;;;6.92;100.00;100832.29;1854554;76;934542;-77
2020/12/09 08:46:50;;;;;;;8.43;2.60;;;;;;;6.90;100.00;100837.77;1866002;75;934544;-77
2020/12/09 08:49:19;;;;;;;8.58;2.80;;;;;;;6.94;100.00;100834.77;1854069;75;934631;-77
2020/12/09 08:51:49;;;;;;;10.97;3.20;;;;;;;6.90;100.00;100837.77;1869319;75;935046;-77
2020/12/09 08:54:19;;;;;;;8.95;3.02;;;;;;;6.94;100.00;100852.72;1853338;75;936514;-76
2020/12/09 08:56:49;;;;;;;8.20;3.00;;;;;;;6.91;100.00;100837.52;1866105;76;934541;-77
2020/12/09 08:59:19;;;;;;;10.80;3.33;;;;;;;6.98;100.00;100838.13;1852981;76;934776;-77
2020/12/09 09:01:49;;;;;;;6.57;3.53;;;;;;;6.99;100.00;100850.84;1845430;76;936770;-77
2020/12/09 09:04:21;;;;;;;9.48;3.00;;;;;;;7.00;100.00;100846.16;1853513;75;934543;-78
2020/12/09 09:06:51;;;;;;;9.03;2.83;;;;;;;7.03;100.00;100847.01;1866086;75;934447;-78
2020/12/09 09:09:20;;;;;;;12.33;2.83;;;;;;;7.05;100.00;100853.95;1832903;76;934552;-78
2020/12/09 09:11:50;;;;;;;10.03;2.67;;;;;;;7.04;100.00;100856.42;1865895;76;936957;-77
2020/12/09 09:14:20;;;;;;;9.65;3.10;;;;;;;7.05;100.00;100856.72;1854372;75;936579;-78
2020/12/09 09:16:50;;;;;;;11.30;3.43;;;;;;;7.06;100.00;100852.03;1845402;76;934845;-77
2020/12/09 09:19:20;;;;;;;8.20;2.90;;;;;;;7.08;100.00;100858.11;1853821;75;936733;-79
2020/12/09 09:21:49;;;;;;;9.83;2.83;;;;;;;7.14;100.00;100858.45;1845736;76;934597;-78
2020/12/09 09:24:19;;;;;;;10.05;3.05;;;;;;;7.16;100.00;100853.48;1854476;75;934809;-77
2020/12/09 09:26:49;;;;;;;6.37;2.63;;;;;;;7.21;100.00;100853.53;1866293;75;936548;-77
2020/12/09 09:29:19;;;;;;;5.35;2.30;;;;;;;7.21;100.00;100850.23;1833502;76;934449;-77
2020/12/09 09:31:49;;;;;;;9.63;2.70;;;;;;;7.18;100.00;100843.86;1866092;75;934452;-78
2020/12/09 09:34:19;;;;;;;8.20;2.30;;;;;;;7.24;100.00;100844.17;1854011;76;934750;-78
2020/12/09 09:36:49;;;;;;;8.37;3.07;;;;;;;7.24;100.00;100844.17;1845612;75;934743;-78
2020/12/09 09:39:18;;;;;;;6.90;2.35;;;;;;;7.31;100.00;100848.95;1853981;76;934720;-78
2020/12/09 09:41:48;;;;;;;9.20;2.23;;;;;;;7.35;100.00;100853.39;1866121;76;934496;-78
2020/12/09 09:44:18;;;;;;;10.27;2.30;;;;;;;7.36;100.00;100850.08;1854001;75;934582;-78
2020/12/09 09:46:48;;;;;;;9.83;2.50;;;;;;;7.37;100.00;100855.33;1866173;76;936739;-78
2020/12/09 09:49:18;;;;;;;6.78;2.77;;;;;;;7.33;100.00;100852.80;1833640;76;937600;-78
2020/12/09 09:51:48;;;;;;;9.67;2.67;;;;;;;7.35;100.00;100855.31;1866170;75;934897;-77
2020/12/09 09:54:17;;;;;;;10.80;3.27;;;;;;;7.33;100.00;100862.48;1853980;76;934432;-78
2020/12/09 09:56:49;;;;;;;12.90;4.03;;;;;;;7.36;100.00;100859.75;1845627;76;936528;-77
2020/12/09 09:59:19;;;;;;;12.70;4.72;;;;;;;7.36;100.00;100859.75;1853836;76;936821;-78
2020/12/09 10:01:49;;;;;;;7.70;3.08;;;;;;;7.36;100.00;100861.94;1845476;76;936712;-79
2020/12/09 10:04:19;;;;;;;10.45;3.52;;;;;;;7.39;100.00;100861.98;1853983;76;934908;-78
2020/12/09 10:06:50;;;;;;;11.53;3.00;;;;;;;7.41;100.00;100861.98;1866225;76;936574;-79
2020/12/09 10:09:20;;;;;;;13.25;3.70;;;;;;;7.42;100.00;100860.06;1852801;75;936750;-78
2020/12/09 10:11:50;;;;;;;10.17;2.93;;;;;;;7.43;100.00;100857.04;1887659;75;936677;-78
2020/12/09 10:14:20;;;;;;;11.48;3.52;;;;;;;7.46;100.00;100853.73;1875583;75;936600;-78
2020/12/09 10:16:51;;;;;;;10.33;3.20;;;;;;;7.43;100.00;100856.20;1887832;75;936570;-79
2020/12/09 10:19:22;;;;;;;11.13;3.37;;;;;;;7.43;100.00;100858.42;1875429;75;936649;-78
2020/12/09 10:21:52;;;;;;;12.43;2.87;;;;;;;7.49;100.00;100852.36;1845805;76;934691;-77
2020/12/09 10:24:22;;;;;;;11.40;3.17;;;;;;;7.48;100.00;100854.33;1853675;75;936598;-78
2020/12/09 10:26:51;;;;;;;7.27;2.83;;;;;;;7.51;100.00;100852.95;1866138;75;934525;-78
2020/12/09 10:29:21;;;;;;;9.33;2.93;;;;;;;7.61;100.00;100841.98;1833433;76;934447;-78
2020/12/09 10:31:52;;;;;;;10.10;2.97;;;;;;;7.71;100.00;100850.32;1866019;75;933611;-78
2020/12/09 10:34:23;;;;;;;6.95;2.27;;;;;;;7.70;100.00;100846.72;1833373;76;936689;-77
2020/12/09 10:36:54;;;;;;;10.33;2.30;;;;;;;7.70;100.00;100838.42;1866048;76;932807;-77
2020/12/09 10:39:25;;;;;;;10.75;2.33;;;;;;;7.72;100.00;100834.86;1833242;76;936773;-77
2020/12/09 10:41:54;;;;;;;8.77;2.07;;;;;;;7.82;100.00;100836.86;1865977;75;934574;-77
2020/12/09 10:44:24;;;;;;;9.65;2.62;;;;;;;7.85;100.00;100832.72;1833579;76;934602;-76
2020/12/09 10:46:54;;;;;;;11.47;2.60;;;;;;;7.86;100.00;100837.99;1866394;76;932824;-77
2020/12/09 10:49:31;;;;;;;7.10;2.70;;;;;;;7.90;100.00;100836.90;1832768;76;936840;-76
2020/12/09 10:51:56;;;;;;;8.70;2.37;;;;;;;7.89;100.00;100834.68;1864905;75;932525;-76
2020/12/09 10:54:25;;;;;;;15.03;3.90;;;;;;;7.90;100.00;100833.59;1833565;76;935073;-75
2020/12/09 10:56:55;;;;;;;9.60;3.23;;;;;;;7.91;100.00;100821.43;1866150;75;934746;-76
2020/12/09 10:59:25;;;;;;;7.63;2.93;;;;;;;7.90;100.00;100818.38;1833531;76;934509;-76
2020/12/09 11:01:56;;;;;;;8.73;3.23;;;;;;;7.91;100.00;100821.43;1866291;75;932682;-76
2020/12/09 11:04:26;;;;;;;12.70;2.77;;;;;;;7.90;100.00;100822.52;1833671;76;934607;-76
2020/12/09 11:06:56;;;;;;;7.47;2.53;;;;;;;7.91;100.00;100821.98;1866056;75;934851;-76
2020/12/09 11:09:26;;;;;;;10.03;2.20;;;;;;;7.90;100.00;100823.07;1833421;76;934474;-76
2020/12/09 11:11:56;;;;;;;7.63;2.30;;;;;;;7.93;100.00;100826.13;1866033;75;934755;-76
2020/12/09 11:14:26;;;;;;;8.60;2.20;;;;;;;7.98;100.00;100819.80;1853912;75;933491;-76
2020/12/09 11:16:56;;;;;;;7.40;2.53;;;;;;;7.95;100.00;100825.88;1866216;75;932591;-76
2020/12/09 11:19:25;;;;;;;6.13;2.23;;;;;;;7.97;100.00;100823.66;1833093;76;934874;-76
2020/12/09 11:21:55;;;;;;;9.30;2.20;;;;;;;8.03;100.00;100822.05;1866028;75;932538;-76
2020/12/09 11:24:26;;;;;;;7.13;2.10;;;;;;;8.04;100.00;100820.95;1853090;76;934800;-76
2020/12/09 11:26:56;;;;;;;11.90;2.33;;;;;;;8.06;100.00;100819.27;1845569;76;932650;-76
2020/12/09 11:29:26;;;;;;;5.73;2.27;;;;;;;8.07;100.00;100823.17;1853745;75;936765;-76